createdAt,value
2019-01-14T00:01:45.736Z,12.47
2019-01-14T00:04:12.631Z,9.20
2019-01-14T00:06:39.508Z,11.93
2019-01-14T00:09:07.729Z,12.00
2019-01-14T00:11:34.617Z,10.97
2019-01-14T00:14:01.641Z,11.10
2019-01-14T00:16:32.621Z,12.70
2019-01-14T00:18:59.344Z,9.20
2019-01-14T00:21:26.407Z,9.20
2019-01-14T00:23:53.307Z,17.67
2019-01-14T00:26:20.155Z,18.17
2019-01-14T00:28:47.000Z,10.17
2019-01-14T00:31:13.835Z,11.47
2019-01-14T00:33:40.706Z,13.77
2019-01-14T00:36:07.579Z,13.60
2019-01-14T00:38:34.308Z,12.17
2019-01-14T00:41:04.556Z,18.30
2019-01-14T00:43:34.259Z,14.47
2019-01-14T00:46:01.111Z,13.63
2019-01-14T00:48:27.978Z,17.53
2019-01-14T00:50:54.864Z,14.03
2019-01-14T00:53:21.879Z,12.33
2019-01-14T00:55:48.607Z,11.43
2019-01-14T00:58:15.487Z,12.43
2019-01-14T01:00:42.315Z,18.40
2019-01-14T01:03:09.038Z,9.13
2019-01-14T01:05:35.915Z,17.17
2019-01-14T01:08:03.724Z,12.20
2019-01-14T01:10:30.692Z,14.07
2019-01-14T01:12:57.765Z,11.07
2019-01-14T01:15:24.709Z,13.20
2019-01-14T01:17:51.827Z,15.90
2019-01-14T01:20:19.779Z,10.83
2019-01-14T01:22:46.859Z,10.30
2019-01-14T01:25:14.152Z,12.87
2019-01-14T01:27:40.883Z,7.23
2019-01-14T01:30:10.606Z,10.33
2019-01-14T01:32:37.418Z,10.87
2019-01-14T01:35:06.027Z,11.97
2019-01-14T01:37:32.793Z,7.03
2019-01-14T01:39:59.685Z,10.27
2019-01-14T01:42:26.630Z,9.70
2019-01-14T01:44:58.203Z,9.30
2019-01-14T01:47:24.987Z,8.20
2019-01-14T01:49:51.756Z,7.17
2019-01-14T01:52:18.595Z,8.60
2019-01-14T01:54:46.663Z,6.20
2019-01-14T01:57:14.992Z,3.13
2019-01-14T01:59:41.919Z,5.53
2019-01-14T02:02:08.779Z,6.90
2019-01-14T02:04:35.723Z,4.87
2019-01-14T02:07:02.706Z,4.10
2019-01-14T02:09:29.458Z,7.83
2019-01-14T02:11:56.228Z,7.00
2019-01-14T02:14:23.363Z,5.67
2019-01-14T02:16:50.467Z,7.50
2019-01-14T02:19:17.459Z,8.78
2019-01-14T02:21:44.423Z,7.47
2019-01-14T02:24:11.294Z,7.93
2019-01-14T02:26:38.317Z,9.53
2019-01-14T02:29:05.302Z,8.10
2019-01-14T02:31:32.145Z,16.93
2019-01-14T02:33:59.069Z,6.70
2019-01-14T02:36:25.879Z,7.30
2019-01-14T02:38:52.743Z,6.00
2019-01-14T02:41:19.603Z,6.93
2019-01-14T02:43:46.496Z,8.50
2019-01-14T02:46:13.219Z,8.37
2019-01-14T02:48:40.163Z,7.17
2019-01-14T02:51:07.026Z,3.67
2019-01-14T02:53:33.922Z,4.13
2019-01-14T02:56:01.094Z,5.43
2019-01-14T02:58:27.987Z,5.57
2019-01-14T03:00:54.750Z,7.40
2019-01-14T03:03:21.500Z,4.70
2019-01-14T03:05:48.359Z,5.67
2019-01-14T03:08:15.204Z,6.73
2019-01-14T03:10:42.186Z,3.63
2019-01-14T03:13:09.079Z,5.97
2019-01-14T03:15:35.892Z,3.50
2019-01-14T03:18:02.755Z,3.40
2019-01-14T03:20:29.708Z,4.27
2019-01-14T03:22:56.665Z,4.93
2019-01-14T03:25:23.552Z,3.73
2019-01-14T03:27:50.366Z,2.13
2019-01-14T03:30:18.156Z,3.83
2019-01-14T03:32:44.989Z,2.80
2019-01-14T03:35:12.004Z,3.37
2019-01-14T03:37:38.964Z,3.77
2019-01-14T03:40:08.543Z,5.57
2019-01-14T03:42:35.404Z,2.23
2019-01-14T03:45:02.787Z,3.23
2019-01-14T03:47:29.655Z,2.57
2019-01-14T03:49:56.656Z,1.10
2019-01-14T03:52:23.475Z,2.70
2019-01-14T03:54:55.115Z,3.63
2019-01-14T03:57:22.506Z,2.87
2019-01-14T03:59:56.026Z,2.63
2019-01-14T04:02:24.719Z,2.30
2019-01-14T04:04:51.502Z,5.13
2019-01-14T04:07:28.291Z,2.43
2019-01-14T04:09:55.207Z,4.13
2019-01-14T04:12:29.889Z,1.53
2019-01-14T04:15:03.367Z,3.43
2019-01-14T04:17:30.342Z,2.70
2019-01-14T04:19:57.338Z,2.57
2019-01-14T04:22:24.335Z,5.80
2019-01-14T04:24:51.032Z,6.13
2019-01-14T04:27:17.766Z,7.40
2019-01-14T04:29:44.484Z,7.77
2019-01-14T04:32:11.208Z,4.80
2019-01-14T04:34:38.105Z,6.57
2019-01-14T04:37:04.963Z,8.67
2019-01-14T04:39:32.519Z,9.20
2019-01-14T04:41:59.264Z,8.23
2019-01-14T04:44:32.434Z,13.27
2019-01-14T04:46:59.467Z,7.00
2019-01-14T04:49:26.243Z,10.00
2019-01-14T04:51:53.010Z,6.97
2019-01-14T04:54:19.905Z,9.23
2019-01-14T04:56:46.676Z,4.70
2019-01-14T04:59:13.378Z,13.30
2019-01-14T05:01:40.111Z,8.00
2019-01-14T05:04:07.090Z,13.17
2019-01-14T05:06:34.095Z,9.97
2019-01-14T05:09:01.015Z,8.27
2019-01-14T05:11:27.871Z,8.47
2019-01-14T05:13:54.633Z,6.60
2019-01-14T05:16:21.358Z,6.77
2019-01-14T05:18:48.494Z,4.87
2019-01-14T05:21:15.422Z,9.33
2019-01-14T05:23:42.287Z,6.97
2019-01-14T05:26:09.453Z,6.07
2019-01-14T05:28:40.368Z,8.73
2019-01-14T05:31:11.865Z,6.93
2019-01-14T05:33:38.800Z,7.00
2019-01-14T05:36:05.764Z,4.90
2019-01-14T05:38:32.624Z,6.40
2019-01-14T05:40:59.490Z,4.10
2019-01-14T05:43:26.391Z,7.60
2019-01-14T05:45:53.254Z,7.50
2019-01-14T05:48:20.144Z,5.03
2019-01-14T05:50:47.004Z,8.93
2019-01-14T05:53:13.818Z,5.63
2019-01-14T05:55:40.661Z,6.27
2019-01-14T05:58:07.498Z,9.20
2019-01-14T06:00:52.215Z,8.37
2019-01-14T06:03:19.179Z,6.30
2019-01-14T06:05:46.036Z,5.63
2019-01-14T06:08:12.798Z,6.73
2019-01-14T06:10:39.627Z,3.40
2019-01-14T06:13:06.379Z,2.00
2019-01-14T06:15:33.479Z,2.53
2019-01-14T06:18:00.306Z,2.77
2019-01-14T06:20:28.283Z,3.13
2019-01-14T06:22:55.324Z,1.00
2019-01-14T06:25:22.146Z,2.80
2019-01-14T06:27:49.152Z,1.40
2019-01-14T06:30:18.671Z,1.03
2019-01-14T06:32:45.518Z,2.70
2019-01-14T06:35:12.579Z,2.20
2019-01-14T06:37:39.407Z,2.63
2019-01-14T06:40:08.206Z,2.43
2019-01-14T06:42:35.103Z,0.90
2019-01-14T06:45:02.212Z,1.20
2019-01-14T06:47:29.222Z,1.40
2019-01-14T06:49:55.963Z,1.00
2019-01-14T06:52:22.794Z,2.17
2019-01-14T06:54:49.631Z,1.27
2019-01-14T06:57:16.363Z,1.60
2019-01-14T06:59:43.356Z,3.73
2019-01-14T07:02:10.316Z,2.07
2019-01-14T07:04:37.158Z,2.90
2019-01-14T07:07:04.023Z,2.90
2019-01-14T07:09:30.779Z,1.37
2019-01-14T07:11:58.044Z,1.77
2019-01-14T07:14:24.875Z,3.57
2019-01-14T07:16:51.735Z,2.60
2019-01-14T07:19:18.468Z,2.13
2019-01-14T07:21:45.227Z,4.23
2019-01-14T07:24:12.139Z,1.20
2019-01-14T07:26:39.339Z,1.50
2019-01-14T07:29:06.489Z,1.20
2019-01-14T07:31:33.428Z,2.17
2019-01-14T07:34:00.275Z,2.10
2019-01-14T07:36:27.031Z,1.20
2019-01-14T07:38:54.055Z,1.20
2019-01-14T07:41:20.791Z,5.47
2019-01-14T07:43:47.774Z,2.77
2019-01-14T07:46:14.646Z,4.07
2019-01-14T07:48:41.363Z,2.03
2019-01-14T07:51:08.360Z,4.20
2019-01-14T07:53:35.189Z,1.50
2019-01-14T07:56:02.047Z,2.03
2019-01-14T07:58:28.983Z,2.20
2019-01-14T08:00:55.691Z,2.67
2019-01-14T08:03:22.560Z,1.20
2019-01-14T08:05:49.519Z,1.93
2019-01-14T08:08:16.243Z,3.30
2019-01-14T08:10:43.067Z,2.50
2019-01-14T08:13:09.949Z,4.83
2019-01-14T08:15:37.031Z,3.33
2019-01-14T08:18:03.844Z,1.80
2019-01-14T08:20:30.706Z,5.60
2019-01-14T08:22:57.581Z,4.07
2019-01-14T08:25:24.527Z,3.53
2019-01-14T08:27:51.534Z,4.27
2019-01-14T08:30:22.439Z,2.97
2019-01-14T08:32:49.430Z,3.90
2019-01-14T08:35:16.418Z,2.07
2019-01-14T08:37:43.230Z,1.07
2019-01-14T08:40:11.054Z,0.33
2019-01-14T08:42:38.049Z,0.70
2019-01-14T08:45:06.079Z,1.83
2019-01-14T08:47:33.059Z,1.70
2019-01-14T08:50:00.288Z,1.10
2019-01-14T08:52:27.347Z,2.40
2019-01-14T08:54:54.111Z,0.70
2019-01-14T08:57:20.996Z,0.40
2019-01-14T08:59:47.853Z,1.67
2019-01-14T09:02:14.691Z,1.53
2019-01-14T09:04:41.671Z,0.50
2019-01-14T09:07:08.503Z,2.10
2019-01-14T09:09:35.392Z,0.40
2019-01-14T09:12:02.449Z,0.97
2019-01-14T09:14:29.406Z,0.80
2019-01-14T09:16:56.264Z,0.60
2019-01-14T09:19:23.115Z,1.73
2019-01-14T09:21:49.979Z,2.70
2019-01-14T09:24:16.839Z,2.60
2019-01-14T09:26:44.986Z,0.60
2019-01-14T09:29:12.191Z,2.67
2019-01-14T09:31:39.048Z,2.13
2019-01-14T09:34:06.351Z,0.97
2019-01-14T09:36:33.203Z,0.73
2019-01-14T09:38:59.915Z,1.63
2019-01-14T09:41:26.884Z,1.33
2019-01-14T09:43:53.619Z,2.27
2019-01-14T09:46:20.467Z,1.63
2019-01-14T09:48:47.915Z,1.30
2019-01-14T09:51:14.619Z,0.90
2019-01-14T09:53:41.511Z,2.97
2019-01-14T09:56:08.254Z,2.07
2019-01-14T09:58:35.087Z,1.93
2019-01-14T10:01:01.955Z,1.83
2019-01-14T10:03:28.831Z,1.13
2019-01-14T10:05:55.692Z,1.37
2019-01-14T10:08:22.675Z,1.50
2019-01-14T10:10:49.567Z,0.90
2019-01-14T10:13:16.329Z,1.70
2019-01-14T10:15:43.184Z,1.90
2019-01-14T10:18:10.179Z,1.87
2019-01-14T10:20:37.131Z,2.03
2019-01-14T10:23:04.040Z,1.87
2019-01-14T10:25:33.156Z,3.10
2019-01-14T10:27:59.864Z,2.80
2019-01-14T10:30:26.866Z,2.07
2019-01-14T10:32:53.839Z,1.50
2019-01-14T10:35:20.839Z,2.10
2019-01-14T10:37:47.804Z,1.53
2019-01-14T10:40:15.039Z,1.80
2019-01-14T10:42:41.979Z,1.50
2019-01-14T10:45:12.291Z,2.77
2019-01-14T10:47:39.107Z,1.77
2019-01-14T10:50:07.294Z,1.00
2019-01-14T10:52:34.143Z,3.97
2019-01-14T10:55:01.131Z,3.07
2019-01-14T10:57:27.989Z,6.67
2019-01-14T10:59:54.894Z,5.37
2019-01-14T11:02:21.855Z,4.17
2019-01-14T11:04:48.674Z,3.10
2019-01-14T11:07:15.579Z,1.40
2019-01-14T11:09:44.608Z,3.07
2019-01-14T11:12:11.177Z,1.67
2019-01-14T11:14:38.019Z,3.23
2019-01-14T11:17:04.819Z,1.50
2019-01-14T11:19:31.783Z,1.80
2019-01-14T11:21:58.671Z,2.40
2019-01-14T11:24:32.616Z,1.77
2019-01-14T11:26:59.531Z,3.33
2019-01-14T11:29:33.496Z,7.37
2019-01-14T11:32:00.431Z,5.20
2019-01-14T11:34:27.251Z,5.10
2019-01-14T11:36:54.072Z,3.80
2019-01-14T11:39:20.923Z,3.00
2019-01-14T11:41:48.920Z,6.60
2019-01-14T11:44:15.711Z,6.23
2019-01-14T11:46:42.415Z,2.90
2019-01-14T11:49:09.436Z,1.73
2019-01-14T11:51:36.162Z,4.10
2019-01-14T11:54:03.419Z,12.37
2019-01-14T11:56:30.142Z,6.13
2019-01-14T11:58:57.115Z,6.10
2019-01-14T12:01:24.071Z,3.87
2019-01-14T12:03:50.936Z,3.10
2019-01-14T12:06:17.786Z,4.10
2019-01-14T12:08:44.647Z,7.80
2019-01-14T12:11:11.491Z,4.03
2019-01-14T12:13:38.347Z,6.93
2019-01-14T12:16:05.185Z,5.43
2019-01-14T12:18:31.908Z,2.37
2019-01-14T12:20:58.873Z,2.70
2019-01-14T12:23:25.755Z,4.13
2019-01-14T12:25:52.720Z,3.87
2019-01-14T12:28:19.426Z,5.37
2019-01-14T12:30:46.390Z,5.83
2019-01-14T12:33:13.257Z,4.33
2019-01-14T12:35:40.122Z,8.43
2019-01-14T12:38:07.088Z,3.93
2019-01-14T12:40:34.055Z,5.50
2019-01-14T12:43:00.758Z,5.10
2019-01-14T12:45:27.576Z,4.57
2019-01-14T12:47:54.443Z,7.53
2019-01-14T12:50:21.503Z,9.87
2019-01-14T12:52:48.637Z,7.67
2019-01-14T12:55:15.914Z,4.27
2019-01-14T12:57:43.216Z,4.23
2019-01-14T13:00:13.130Z,6.13
2019-01-14T13:02:40.127Z,9.17
2019-01-14T13:05:07.558Z,7.40
2019-01-14T13:07:34.510Z,11.30
2019-01-14T13:10:01.220Z,6.93
2019-01-14T13:12:27.919Z,6.47
2019-01-14T13:14:54.703Z,3.77
2019-01-14T13:17:21.693Z,5.43
2019-01-14T13:19:48.537Z,4.13
2019-01-14T13:22:15.284Z,9.77
2019-01-14T13:24:42.039Z,3.73
2019-01-14T13:27:08.969Z,11.30
2019-01-14T13:29:36.015Z,6.03
2019-01-14T13:32:03.146Z,5.67
2019-01-14T13:34:30.007Z,8.00
2019-01-14T13:36:56.940Z,6.57
2019-01-14T13:39:23.807Z,5.77
2019-01-14T13:41:50.791Z,5.70
2019-01-14T13:44:17.671Z,8.33
2019-01-14T13:46:44.506Z,10.13
2019-01-14T13:49:11.462Z,6.33
2019-01-14T13:51:38.431Z,7.13
2019-01-14T13:54:05.411Z,4.17
2019-01-14T13:56:32.179Z,5.30
2019-01-14T13:58:58.937Z,6.13
2019-01-14T14:01:25.788Z,9.27
2019-01-14T14:03:52.794Z,6.13
2019-01-14T14:06:19.516Z,5.27
2019-01-14T14:08:46.463Z,6.43
2019-01-14T14:11:13.248Z,8.53
2019-01-14T14:13:40.118Z,8.17
2019-01-14T14:16:07.087Z,8.10
2019-01-14T14:18:33.812Z,5.43
2019-01-14T14:21:00.647Z,10.30
2019-01-14T14:23:27.447Z,4.27
2019-01-14T14:25:54.291Z,6.03
2019-01-14T14:28:21.223Z,7.00
2019-01-14T14:30:48.187Z,9.90
2019-01-14T14:33:15.043Z,7.03
2019-01-14T14:35:41.796Z,9.20
2019-01-14T14:38:09.529Z,11.23
2019-01-14T14:40:36.332Z,6.20
2019-01-14T14:43:03.931Z,8.70
2019-01-14T14:45:30.965Z,6.80
2019-01-14T14:47:57.878Z,6.33
2019-01-14T14:50:24.591Z,9.43
2019-01-14T14:52:51.563Z,11.20
2019-01-14T14:55:18.423Z,6.60
2019-01-14T14:57:45.410Z,7.57
2019-01-14T15:00:14.759Z,8.30
2019-01-14T15:02:41.646Z,7.13
2019-01-14T15:05:09.075Z,10.27
2019-01-14T15:07:35.899Z,7.00
2019-01-14T15:10:03.886Z,6.80
2019-01-14T15:12:30.847Z,5.37
2019-01-14T15:14:58.543Z,6.90
2019-01-14T15:17:25.303Z,7.23
2019-01-14T15:19:52.166Z,9.17
2019-01-14T15:22:19.018Z,4.73
2019-01-14T15:24:45.871Z,6.40
2019-01-14T15:27:12.611Z,6.60
2019-01-14T15:29:39.363Z,4.33
2019-01-14T15:32:06.335Z,4.33
2019-01-14T15:34:33.186Z,5.00
2019-01-14T15:37:00.214Z,11.90
2019-01-14T15:39:26.919Z,9.23
2019-01-14T15:41:53.671Z,3.93
2019-01-14T15:44:21.042Z,9.70
2019-01-14T15:46:48.059Z,6.33
2019-01-14T15:49:14.805Z,9.17
2019-01-14T15:51:41.893Z,5.00
2019-01-14T15:54:08.671Z,6.03
2019-01-14T15:56:35.532Z,4.67
2019-01-14T15:59:02.421Z,7.87
2019-01-14T16:01:29.314Z,6.90
2019-01-14T16:03:56.199Z,5.30
2019-01-14T16:06:22.955Z,10.87
2019-01-14T16:08:49.815Z,9.70
2019-01-14T16:11:16.667Z,7.97
2019-01-14T16:13:43.951Z,5.03
2019-01-14T16:16:10.914Z,3.43
2019-01-14T16:18:37.643Z,4.10
2019-01-14T16:21:04.610Z,9.07
2019-01-14T16:23:31.496Z,6.77
2019-01-14T16:25:59.512Z,4.23
2019-01-14T16:28:26.275Z,7.60
2019-01-14T16:30:53.162Z,3.30
2019-01-14T16:33:19.942Z,5.33
2019-01-14T16:35:46.759Z,7.20
2019-01-14T16:38:13.759Z,4.00
2019-01-14T16:40:40.551Z,6.87
2019-01-14T16:43:07.612Z,8.23
2019-01-14T16:45:34.695Z,6.63
2019-01-14T16:48:01.572Z,6.20
2019-01-14T16:50:28.295Z,9.67
2019-01-14T16:52:55.169Z,5.73
2019-01-14T16:55:29.990Z,5.27
2019-01-14T16:57:56.747Z,5.30
2019-01-14T17:00:23.497Z,4.47
2019-01-14T17:02:50.200Z,3.03
2019-01-14T17:05:17.149Z,5.00
2019-01-14T17:07:44.407Z,6.73
2019-01-14T17:10:12.751Z,5.80
2019-01-14T17:12:39.739Z,7.63
2019-01-14T17:15:06.955Z,4.47
2019-01-14T17:17:33.819Z,7.67
2019-01-14T17:20:00.771Z,8.70
2019-01-14T17:22:27.507Z,10.00
2019-01-14T17:24:54.446Z,8.10
2019-01-14T17:27:21.209Z,7.37
2019-01-14T17:29:48.083Z,6.20
2019-01-14T17:32:15.061Z,9.13
2019-01-14T17:34:41.799Z,12.13
2019-01-14T17:37:08.685Z,33.33
2019-01-14T17:39:35.391Z,19.20
2019-01-14T17:42:02.523Z,17.13
2019-01-14T17:44:29.327Z,18.87
2019-01-14T17:46:56.079Z,19.03
2019-01-14T17:49:22.874Z,10.90
2019-01-14T17:51:49.858Z,22.67
2019-01-14T17:54:16.711Z,18.00
2019-01-14T17:56:43.688Z,5.57
2019-01-14T17:59:10.401Z,12.87
2019-01-14T18:01:37.111Z,8.13
2019-01-14T18:04:04.363Z,8.27
2019-01-14T18:06:31.208Z,9.40
2019-01-14T18:08:57.991Z,9.37
2019-01-14T18:11:24.970Z,12.73
2019-01-14T18:13:51.840Z,9.87
2019-01-14T18:16:18.707Z,8.63
2019-01-14T18:18:45.506Z,9.83
2019-01-14T18:21:13.920Z,7.53
2019-01-14T18:23:40.883Z,8.23
2019-01-14T18:26:07.820Z,9.20
2019-01-14T18:28:34.723Z,7.03
2019-01-14T18:31:01.708Z,7.40
2019-01-14T18:33:28.675Z,8.80
2019-01-14T18:35:55.651Z,13.13
2019-01-14T18:38:22.559Z,6.83
2019-01-14T18:40:49.283Z,8.50
2019-01-14T18:43:16.055Z,12.53
2019-01-14T18:45:42.802Z,13.17
2019-01-14T18:48:09.827Z,12.87
2019-01-14T18:50:36.687Z,13.13
2019-01-14T18:53:03.708Z,7.37
2019-01-14T18:55:30.563Z,7.90
2019-01-14T18:57:57.296Z,9.60
2019-01-14T19:00:24.271Z,5.70
2019-01-14T19:02:51.130Z,8.20
2019-01-14T19:05:18.019Z,12.90
2019-01-14T19:07:45.081Z,13.00
2019-01-14T19:10:12.103Z,10.20
2019-01-14T19:12:39.050Z,11.13
2019-01-14T19:15:08.675Z,11.43
2019-01-14T19:17:35.539Z,8.30
2019-01-14T19:20:03.816Z,10.63
2019-01-14T19:22:30.781Z,9.73
2019-01-14T19:24:57.506Z,15.50
2019-01-14T19:27:24.419Z,10.17
2019-01-14T19:29:51.263Z,11.13
2019-01-14T19:32:17.990Z,11.40
2019-01-14T19:34:44.714Z,12.93
2019-01-14T19:37:11.927Z,8.43
2019-01-14T19:39:38.727Z,12.23
2019-01-14T19:42:05.743Z,15.40
2019-01-14T19:44:32.687Z,13.47
2019-01-14T19:46:59.707Z,13.67
2019-01-14T19:49:26.580Z,10.73
2019-01-14T19:51:53.479Z,7.60
2019-01-14T19:54:20.411Z,11.27
2019-01-14T19:56:47.242Z,14.37
2019-01-14T19:59:14.099Z,8.80
2019-01-14T20:01:41.059Z,12.23
2019-01-14T20:04:08.248Z,11.57
2019-01-14T20:06:34.987Z,12.80
2019-01-14T20:09:01.735Z,14.57
2019-01-14T20:11:28.675Z,9.47
2019-01-14T20:13:55.875Z,10.07
2019-01-14T20:16:22.738Z,11.77
2019-01-14T20:18:49.903Z,11.83
2019-01-14T20:21:18.892Z,9.40
2019-01-14T20:23:52.170Z,7.53
2019-01-14T20:26:14.423Z,6.97
2019-01-14T20:28:41.176Z,11.73
2019-01-14T20:31:08.039Z,8.20
2019-01-14T20:33:34.799Z,6.33
2019-01-14T20:36:03.709Z,12.70
2019-01-14T20:38:32.151Z,7.63
2019-01-14T20:40:59.412Z,7.97
2019-01-14T20:43:26.181Z,10.17
2019-01-14T20:45:52.927Z,10.30
2019-01-14T20:48:20.710Z,10.17
2019-01-14T20:50:47.459Z,6.93
2019-01-14T20:53:14.323Z,10.80
2019-01-14T20:55:41.880Z,8.07
2019-01-14T20:58:08.772Z,10.43
2019-01-14T21:00:35.732Z,7.33
2019-01-14T21:03:02.712Z,10.70
2019-01-14T21:05:29.589Z,10.63
2019-01-14T21:07:56.728Z,9.33
2019-01-14T21:10:23.667Z,9.90
2019-01-14T21:12:50.635Z,10.67
2019-01-14T21:15:17.758Z,7.40
2019-01-14T21:17:44.595Z,9.60
2019-01-14T21:20:14.791Z,6.40
2019-01-14T21:22:41.690Z,15.80
2019-01-14T21:25:08.658Z,12.77
2019-01-14T21:27:35.742Z,10.60
2019-01-14T21:30:05.017Z,7.63
2019-01-14T21:32:31.979Z,13.33
2019-01-14T21:34:58.986Z,11.03
2019-01-14T21:37:26.933Z,9.90
2019-01-14T21:39:53.831Z,12.30
2019-01-14T21:42:20.665Z,8.87
2019-01-14T21:44:47.571Z,13.83
2019-01-14T21:47:14.435Z,6.80
2019-01-14T21:49:41.723Z,10.63
2019-01-14T21:52:08.471Z,11.63
2019-01-14T21:54:36.117Z,10.90
2019-01-14T21:57:02.971Z,14.43
2019-01-14T21:59:29.966Z,11.10
2019-01-14T22:01:56.811Z,7.70
2019-01-14T22:04:23.692Z,12.80
2019-01-14T22:06:50.695Z,13.27
2019-01-14T22:09:17.631Z,11.83
2019-01-14T22:11:44.639Z,12.20
2019-01-14T22:14:11.343Z,9.27
2019-01-14T22:16:38.406Z,8.40
2019-01-14T22:19:05.439Z,5.43
2019-01-14T22:21:32.411Z,7.43
2019-01-14T22:24:00.037Z,7.73
2019-01-14T22:26:26.863Z,11.03
2019-01-14T22:28:53.594Z,7.50
2019-01-14T22:31:20.805Z,10.03
2019-01-14T22:33:47.690Z,13.30
2019-01-14T22:36:14.669Z,9.63
2019-01-14T22:38:41.823Z,13.93
2019-01-14T22:41:08.779Z,13.37
2019-01-14T22:43:35.511Z,11.07
2019-01-14T22:46:02.480Z,9.73
2019-01-14T22:48:29.438Z,11.83
2019-01-14T22:50:56.182Z,10.03
2019-01-14T22:53:23.044Z,20.70
2019-01-14T22:55:50.111Z,10.63
2019-01-14T22:58:17.048Z,12.73
2019-01-14T23:01:09.532Z,8.43
2019-01-14T23:03:37.086Z,11.80
2019-01-14T23:06:04.203Z,7.90
2019-01-14T23:08:31.071Z,15.33
2019-01-14T23:10:58.170Z,19.93
2019-01-14T23:13:25.046Z,10.23
2019-01-14T23:15:51.908Z,16.03
2019-01-14T23:18:18.875Z,9.23
2019-01-14T23:20:45.743Z,14.17
2019-01-14T23:23:12.611Z,16.83
2019-01-14T23:25:39.471Z,11.63
2019-01-14T23:28:06.413Z,10.30
2019-01-14T23:30:33.411Z,14.17
2019-01-14T23:33:00.343Z,13.60
2019-01-14T23:35:28.769Z,10.50
2019-01-14T23:37:55.832Z,12.77
2019-01-14T23:40:22.718Z,18.77
2019-01-14T23:42:49.583Z,16.50
2019-01-14T23:45:16.478Z,12.33
2019-01-14T23:47:43.188Z,10.73
2019-01-14T23:50:10.315Z,10.87
2019-01-14T23:52:37.287Z,12.70
2019-01-14T23:55:04.718Z,8.70
2019-01-14T23:57:31.571Z,13.03
2019-01-14T23:59:58.402Z,12.13
